Time;durP1;ratioP1;P1;durP2;ratioP2;P2;SDS_P1;SDS_P2;PMS_P1;PMS_P2;Temp;Humidity;BMP_temperature;BMP_pressure;BME280_temperature;BME280_humidity;BME280_pressure;Samples;Min_cycle;Max_cycle;Signal;HPM_P1;HPM_P2
2021/11/20 00:00:26;;;;;;;3.00;2.37;;;;;;;3.36;80.90;98358.97;5051420;28;20275;-68
2021/11/20 00:02:52;;;;;;;2.60;2.33;;;;;;;3.28;81.06;98357.22;5052153;28;20299;-69
2021/11/20 00:05:24;;;;;;;2.20;2.00;;;;;;;3.32;80.92;98369.03;5052165;28;20283;-69
2021/11/20 00:07:51;;;;;;;2.83;2.63;;;;;;;3.26;80.66;98366.28;5052066;28;20333;-70
2021/11/20 00:10:20;;;;;;;3.63;2.43;;;;;;;3.21;81.36;98372.06;5052130;28;20743;-69
2021/11/20 00:12:46;;;;;;;3.45;3.15;;;;;;;3.20;80.80;98374.88;5052187;28;20354;-69
2021/11/20 00:15:17;;;;;;;2.40;2.13;;;;;;;3.18;81.39;98376.81;5052552;28;20045;-68
2021/11/20 00:17:43;;;;;;;2.43;2.23;;;;;;;3.10;81.71;98375.06;5052420;28;20632;-73
2021/11/20 00:20:12;;;;;;;3.60;3.30;;;;;;;3.12;81.67;98380.97;5050705;28;20275;-69
2021/11/20 00:22:41;;;;;;;2.80;2.50;;;;;;;3.05;81.22;98370.34;5051636;28;20404;-70
2021/11/20 00:25:20;;;;;;;3.20;2.90;;;;;;;3.02;81.46;98367.22;5050571;28;20295;-69
2021/11/20 00:27:48;;;;;;;3.73;3.07;;;;;;;3.03;81.80;98377.56;5051528;28;20072;-69
2021/11/20 00:30:17;;;;;;;3.70;2.70;;;;;;;2.97;81.83;98372.19;5051913;28;20303;-67
2021/11/20 00:32:57;;;;;;;2.90;2.60;;;;;;;3.01;82.12;98384.00;5051196;28;20305;-70
2021/11/20 00:35:28;;;;;;;3.13;2.90;;;;;;;3.06;82.29;98385.13;5053423;28;20754;-69
2021/11/20 00:37:54;;;;;;;3.17;2.50;;;;;;;3.05;82.38;98380.03;5052801;28;20297;-70
2021/11/20 00:40:32;;;;;;;3.83;3.23;;;;;;;3.15;82.46;98383.25;5053634;28;20735;-69
2021/11/20 00:42:58;;;;;;;3.10;2.78;;;;;;;3.10;82.09;98375.06;5052859;28;20468;-69
2021/11/20 00:45:24;;;;;;;3.30;3.00;;;;;;;3.04;82.47;98378.41;5052099;28;20462;-71
2021/11/20 00:47:50;;;;;;;3.43;3.10;;;;;;;3.00;82.59;98385.00;5052050;28;20282;-69
2021/11/20 00:50:18;;;;;;;3.80;2.93;;;;;;;2.99;83.06;98392.06;5051820;28;20252;-69
2021/11/20 00:52:45;;;;;;;5.40;3.30;;;;;;;2.90;83.52;98389.66;5051810;28;20507;-71
2021/11/20 00:55:13;;;;;;;5.23;4.13;;;;;;;2.80;83.58;98384.59;5051557;28;20754;-68
2021/11/20 00:57:40;;;;;;;4.20;3.80;;;;;;;2.77;83.84;98393.63;5051698;28;20636;-69
2021/11/20 01:00:10;;;;;;;3.53;3.23;;;;;;;2.66;83.50;98401.09;5051435;28;20040;-71
2021/11/20 01:02:37;;;;;;;3.50;3.20;;;;;;;2.61;83.83;98400.78;5051363;28;20311;-68
2021/11/20 01:05:06;;;;;;;3.50;3.07;;;;;;;2.54;83.17;98400.63;5051493;28;20318;-69
2021/11/20 01:07:32;;;;;;;4.83;3.20;;;;;;;2.52;83.35;98401.78;5051446;28;20320;-68
2021/11/20 01:09:58;;;;;;;3.77;2.87;;;;;;;2.58;83.82;98411.59;5051626;28;20315;-69
2021/11/20 01:12:29;;;;;;;3.60;3.30;;;;;;;2.57;84.02;98426.53;5053898;28;20087;-67
2021/11/20 01:14:56;;;;;;;4.23;2.73;;;;;;;2.36;83.32;98403.47;5055073;28;20282;-67
2021/11/20 01:17:25;;;;;;;2.93;2.60;;;;;;;2.41;82.22;98426.59;5054992;28;20271;-67
2021/11/20 01:19:52;;;;;;;2.60;2.40;;;;;;;2.29;82.81;98427.91;5055123;28;20271;-66
2021/11/20 01:22:20;;;;;;;2.70;2.23;;;;;;;2.19;82.25;98430.72;5054893;28;20077;-67
2021/11/20 01:24:46;;;;;;;2.28;2.00;;;;;;;2.23;82.68;98445.16;5054878;28;20627;-69
2021/11/20 01:27:13;;;;;;;2.23;2.03;;;;;;;1.99;82.79;98409.25;5054977;28;20047;-70
2021/11/20 01:29:39;;;;;;;3.17;1.90;;;;;;;2.22;82.79;98447.97;5055015;28;20389;-66
2021/11/20 01:32:05;;;;;;;3.67;2.13;;;;;;;2.22;82.23;98447.97;5054922;28;20812;-67
2021/11/20 01:34:31;;;;;;;3.20;2.13;;;;;;;2.12;82.28;98453.41;5053778;28;20264;-68
2021/11/20 01:36:58;;;;;;;1.90;1.80;;;;;;;2.01;82.78;98441.41;5054933;28;20029;-69
2021/11/20 01:39:28;;;;;;;1.70;1.60;;;;;;;2.06;82.71;98454.06;5054644;28;20064;-68
2021/11/20 01:41:58;;;;;;;2.43;1.63;;;;;;;2.07;82.08;98467.03;5054534;28;20294;-69
2021/11/20 01:44:29;;;;;;;2.00;1.80;;;;;;;2.03;81.85;98459.66;5054550;28;20271;-67
2021/11/20 01:47:00;;;;;;;2.77;2.00;;;;;;;2.05;81.09;98478.69;5054713;28;20263;-67
2021/11/20 01:49:35;;;;;;;2.37;1.80;;;;;;;1.92;80.65;98468.66;5054847;28;20611;-67
2021/11/20 01:52:13;;;;;;;3.07;1.70;;;;;;;1.81;81.48;98466.34;5054500;28;20647;-68
2021/11/20 01:54:45;;;;;;;1.97;1.87;;;;;;;1.79;81.03;98463.91;5054443;28;20374;-66
2021/11/20 01:57:31;;;;;;;3.10;1.93;;;;;;;1.73;81.44;98468.94;5054314;28;20301;-67
2021/11/20 02:00:32;;;;;;;2.67;2.47;;;;;;;1.80;81.52;98481.28;5053116;28;20278;-68
2021/11/20 02:03:05;;;;;;;2.63;2.00;;;;;;;1.81;81.17;98476.84;5054377;28;20924;-67
2021/11/20 02:05:42;;;;;;;2.93;2.73;;;;;;;1.60;81.36;98443.19;5054417;28;20354;-68
2021/11/20 02:08:18;;;;;;;2.80;2.60;;;;;;;1.85;81.19;98491.28;5054312;28;20382;-67
2021/11/20 02:10:51;;;;;;;2.50;2.30;;;;;;;1.82;81.13;98504.75;5054357;28;20279;-68
2021/11/20 02:13:22;;;;;;;3.00;2.80;;;;;;;1.80;80.96;98489.16;5054177;28;20848;-67
2021/11/20 02:15:50;;;;;;;2.73;2.50;;;;;;;1.85;80.45;98493.91;5054148;28;20355;-69
2021/11/20 02:18:18;;;;;;;2.88;2.60;;;;;;;1.82;80.34;98508.19;5052879;28;20325;-67
2021/11/20 02:21:05;;;;;;;3.35;2.78;;;;;;;1.71;80.48;98494.53;5053888;28;20095;-67
2021/11/20 02:23:30;;;;;;;4.47;2.73;;;;;;;1.79;80.99;98519.00;5053081;28;20059;-66
2021/11/20 02:25:55;;;;;;;4.07;3.30;;;;;;;1.79;81.10;98524.25;5053529;28;20292;-67
2021/11/20 02:28:21;;;;;;;4.03;3.43;;;;;;;1.71;80.65;98513.72;5053608;28;20040;-66
2021/11/20 02:30:48;;;;;;;4.83;3.13;;;;;;;1.76;80.90;98524.59;5054005;28;20063;-67
2021/11/20 02:33:22;;;;;;;4.30;3.90;;;;;;;1.73;80.96;98526.69;5053774;28;20147;-66
2021/11/20 02:36:01;;;;;;;3.13;2.83;;;;;;;1.62;81.02;98525.19;5053763;28;20271;-66
2021/11/20 02:38:35;;;;;;;5.50;3.33;;;;;;;1.49;81.61;98523.03;5053493;28;20295;-68
2021/11/20 02:41:01;;;;;;;4.33;3.93;;;;;;;1.49;81.96;98528.28;5053586;28;20302;-68
2021/11/20 02:43:27;;;;;;;3.90;3.40;;;;;;;1.44;81.91;98530.53;5053667;28;20777;-67
2021/11/20 02:45:56;;;;;;;4.27;3.13;;;;;;;1.48;82.01;98545.00;5053736;28;20068;-68
2021/11/20 02:48:22;;;;;;;4.90;3.42;;;;;;;1.51;81.97;98552.56;5053419;28;20680;-68
2021/11/20 02:50:53;;;;;;;3.30;3.00;;;;;;;1.57;81.56;98558.13;5053235;28;20115;-67
2021/11/20 02:53:29;;;;;;;3.73;3.00;;;;;;;1.50;81.28;98553.53;5053168;28;20291;-67
2021/11/20 02:55:55;;;;;;;3.87;2.73;;;;;;;1.47;81.50;98558.28;5053600;28;20275;-66
2021/11/20 02:58:23;;;;;;;3.10;2.80;;;;;;;1.57;81.75;98587.81;5052105;28;20274;-68
2021/11/20 03:01:21;;;;;;;2.97;2.70;;;;;;;1.48;81.50;98576.47;5053323;28;20098;-65
2021/11/20 03:03:47;;;;;;;4.18;3.30;;;;;;;1.43;81.82;98578.72;5051985;28;20508;-66
2021/11/20 03:06:14;;;;;;;3.70;2.80;;;;;;;1.46;82.16;98586.31;5052058;28;20037;-68
2021/11/20 03:08:39;;;;;;;3.47;3.00;;;;;;;1.37;82.41;98584.59;5052869;28;20293;-68
2021/11/20 03:11:30;;;;;;;4.83;3.13;;;;;;;1.29;81.55;98597.69;5053134;28;20855;-67
2021/11/20 03:14:04;;;;;;;10.60;3.83;;;;;;;1.31;82.27;98597.53;5052868;28;20271;-68
2021/11/20 03:16:30;;;;;;;7.17;4.80;;;;;;;1.26;82.69;98598.00;5052855;28;20064;-66
2021/11/20 03:18:56;;;;;;;10.73;4.47;;;;;;;1.30;82.33;98615.06;5052847;28;20362;-69
2021/11/20 03:21:21;;;;;;;7.83;4.17;;;;;;;1.28;83.09;98622.28;5053291;28;20758;-69
2021/11/20 03:23:51;;;;;;;11.27;4.80;;;;;;;1.20;82.56;98614.38;5052707;28;20083;-67
2021/11/20 03:26:16;;;;;;;10.93;4.27;;;;;;;1.00;82.46;98589.34;5052945;28;20033;-66
2021/11/20 03:28:42;;;;;;;11.20;4.47;;;;;;;1.11;82.69;98618.72;5052581;28;20361;-67
2021/11/20 03:31:08;;;;;;;8.13;4.70;;;;;;;1.08;83.07;98636.56;5052514;28;20055;-64
2021/11/20 03:33:34;;;;;;;9.07;4.33;;;;;;;1.08;83.07;98631.31;5052372;28;20029;-65
2021/11/20 03:36:00;;;;;;;10.07;4.10;;;;;;;1.15;83.09;98648.06;5052482;28;20094;-65
2021/11/20 03:38:27;;;;;;;13.27;4.93;;;;;;;1.11;82.84;98655.41;5051102;28;20271;-67
2021/11/20 03:40:52;;;;;;;8.07;5.50;;;;;;;1.16;82.53;98665.47;5052316;28;20040;-66
2021/11/20 03:43:19;;;;;;;7.97;4.07;;;;;;;1.09;82.64;98660.00;5052436;28;20287;-66
2021/11/20 03:45:45;;;;;;;9.80;4.50;;;;;;;1.14;82.78;98676.09;5052722;28;20029;-66
2021/11/20 03:48:12;;;;;;;6.73;3.67;;;;;;;1.11;82.55;98662.47;5052345;28;20259;-64
2021/11/20 03:50:38;;;;;;;10.87;3.60;;;;;;;1.30;82.29;98683.25;5050989;28;20267;-68
2021/11/20 03:53:05;;;;;;;8.53;3.73;;;;;;;1.34;81.69;98674.09;5052186;28;20409;-64
2021/11/20 03:55:34;;;;;;;4.60;2.80;;;;;;;1.39;81.91;98682.31;5052189;28;20351;-68
2021/11/20 03:58:00;;;;;;;2.90;2.60;;;;;;;1.33;81.67;98672.44;5052114;28;20268;-64
2021/11/20 04:00:30;;;;;;;3.30;2.40;;;;;;;1.36;81.02;98677.38;5052423;28;20037;-65
2021/11/20 04:03:03;;;;;;;3.37;3.07;;;;;;;1.37;80.82;98678.19;5050749;28;20311;-66
2021/11/20 04:05:32;;;;;;;2.80;2.50;;;;;;;1.51;80.94;98696.81;5052083;28;20298;-65
2021/11/20 04:07:58;;;;;;;3.28;2.58;;;;;;;1.48;79.98;98706.81;5052805;28;20314;-65
2021/11/20 04:10:24;;;;;;;2.93;2.53;;;;;;;1.49;80.44;98714.53;5052740;28;20037;-67
2021/11/20 04:12:50;;;;;;;3.60;2.70;;;;;;;1.41;80.27;98697.91;5053397;28;20370;-67
2021/11/20 04:15:19;;;;;;;2.43;2.07;;;;;;;1.48;80.54;98712.88;5052280;28;20511;-68
2021/11/20 04:17:44;;;;;;;;;;;;;;;1.55;80.65;98723.56;5052315;28;20036;-64
2021/11/20 04:20:13;;;;;;;2.70;2.50;;;;;;;1.53;80.37;98725.53;5051994;28;20007;-66
2021/11/20 04:22:38;;;;;;;3.30;2.05;;;;;;;1.45;80.43;98721.06;5050183;28;20037;-65
2021/11/20 04:25:07;;;;;;;3.30;2.40;;;;;;;1.54;80.12;98733.25;5051562;28;20059;-64
2021/11/20 04:27:33;;;;;;;4.47;2.35;;;;;;;1.53;80.15;98723.72;5051964;28;20051;-67
2021/11/20 04:29:58;;;;;;;3.33;2.90;;;;;;;1.49;79.59;98730.25;5051880;28;20045;-66
2021/11/20 04:32:24;;;;;;;2.80;2.50;;;;;;;1.41;80.16;98717.06;5051712;28;20037;-68
2021/11/20 04:34:50;;;;;;;4.60;2.83;;;;;;;1.62;79.95;98742.13;5051626;28;20043;-66
2021/11/20 04:37:15;;;;;;;3.40;2.73;;;;;;;1.69;80.02;98751.03;5050124;28;20033;-65
2021/11/20 04:39:41;;;;;;;3.90;3.07;;;;;;;1.62;79.29;98744.75;5051744;28;20093;-66
2021/11/20 04:42:07;;;;;;;4.00;2.50;;;;;;;1.65;79.90;98744.44;5051666;28;20040;-67
2021/11/20 04:44:32;;;;;;;3.93;2.37;;;;;;;1.71;78.22;98754.31;5051498;28;20037;-68
2021/11/20 04:46:58;;;;;;;5.20;2.10;;;;;;;1.59;78.36;98735.41;5053585;28;20041;-70
2021/11/20 04:49:23;;;;;;;2.50;2.30;;;;;;;1.62;78.38;98750.00;5055643;28;20064;-70
2021/11/20 04:51:49;;;;;;;2.37;2.17;;;;;;;1.59;78.47;98742.44;5055338;28;20040;-66
2021/11/20 04:54:14;;;;;;;2.60;1.83;;;;;;;1.49;78.08;98745.19;5055685;28;20037;-65
2021/11/20 04:56:40;;;;;;;2.30;2.10;;;;;;;1.31;78.92;98734.72;5055591;28;20040;-66
2021/11/20 04:59:06;;;;;;;2.67;2.40;;;;;;;1.39;79.09;98760.19;5055027;28;20091;-69
2021/11/20 05:01:33;;;;;;;2.13;1.93;;;;;;;1.28;78.43;98742.91;5054760;28;20275;-66
2021/11/20 05:04:01;;;;;;;2.30;1.83;;;;;;;1.37;77.69;98756.88;5037454;28;20411;-65
2021/11/20 05:06:27;;;;;;;2.73;2.20;;;;;;;1.16;77.79;98733.63;5055290;28;20271;-66
2021/11/20 05:08:59;;;;;;;2.77;2.20;;;;;;;1.17;77.58;98753.63;5054033;28;20607;-67
2021/11/20 05:11:26;;;;;;;2.83;2.10;;;;;;;1.35;77.81;98774.56;5055503;28;20325;-67
2021/11/20 05:13:53;;;;;;;3.05;2.15;;;;;;;1.41;78.11;98774.78;5055185;28;20297;-67
2021/11/20 05:16:20;;;;;;;3.53;2.70;;;;;;;1.43;78.12;98778.06;5053731;28;20200;-66
2021/11/20 05:18:46;;;;;;;2.67;1.83;;;;;;;1.48;77.82;98775.84;5054747;28;20345;-67
2021/11/20 05:21:16;;;;;;;1.97;1.77;;;;;;;1.42;77.13;98765.94;5053181;28;20286;-65
2021/11/20 05:23:42;;;;;;;2.63;2.30;;;;;;;1.54;77.17;98775.22;5054877;28;20357;-68
2021/11/20 05:26:12;;;;;;;4.63;2.00;;;;;;;1.42;77.49;98783.47;5037037;28;20305;-66
2021/11/20 05:28:39;;;;;;;2.33;2.13;;;;;;;1.33;77.34;98782.59;5054803;28;20306;-65
2021/11/20 05:31:04;;;;;;;2.10;1.90;;;;;;;1.28;77.43;98779.59;5054686;28;20297;-67
2021/11/20 05:33:34;;;;;;;2.83;2.33;;;;;;;1.31;77.76;98776.69;5054460;28;20631;-66
2021/11/20 05:36:01;;;;;;;2.23;1.97;;;;;;;1.18;77.86;98771.00;5054809;28;20033;-64
2021/11/20 05:38:27;;;;;;;2.50;2.13;;;;;;;1.12;78.63;98790.78;5054421;28;20275;-65
2021/11/20 05:40:53;;;;;;;2.57;2.23;;;;;;;0.98;79.36;98798.34;5053139;28;20267;-66
2021/11/20 05:43:20;;;;;;;2.37;2.00;;;;;;;1.00;79.09;98806.88;5054381;28;20693;-66
2021/11/20 05:45:58;;;;;;;3.13;2.73;;;;;;;0.91;79.35;98798.13;5054375;28;20643;-66
2021/11/20 05:48:24;;;;;;;3.50;2.53;;;;;;;0.88;79.37;98809.75;5053654;28;20701;-69
2021/11/20 05:50:50;;;;;;;3.30;3.00;;;;;;;0.93;78.95;98806.66;5054141;28;20032;-67
2021/11/20 05:53:23;;;;;;;5.50;2.40;;;;;;;1.15;78.93;98815.88;5054027;28;20033;-63
2021/11/20 05:55:51;;;;;;;3.80;2.53;;;;;;;1.15;79.26;98810.63;5052596;28;20280;-65
2021/11/20 05:58:17;;;;;;;3.27;2.83;;;;;;;1.33;79.33;98829.81;5052192;28;20275;-65
2021/11/20 06:00:46;;;;;;;5.00;3.63;;;;;;;1.32;78.96;98816.84;5052505;28;20275;-66
2021/11/20 06:03:13;;;;;;;5.60;3.40;;;;;;;1.37;78.96;98818.03;5054089;28;20304;-66
2021/11/20 06:05:40;;;;;;;5.40;3.10;;;;;;;1.49;78.92;98819.44;5053565;28;20283;-67
2021/11/20 06:08:06;;;;;;;6.27;3.40;;;;;;;1.53;78.53;98823.41;5053611;28;20725;-66
2021/11/20 06:10:34;;;;;;;6.70;3.20;;;;;;;1.54;78.44;98819.81;5053629;28;20860;-65
2021/11/20 06:13:00;;;;;;;4.10;3.30;;;;;;;1.61;77.64;98837.56;5053386;28;20282;-64
2021/11/20 06:15:51;;;;;;;7.07;2.60;;;;;;;1.61;77.49;98842.81;5051424;28;20270;-66
2021/11/20 06:18:17;;;;;;;4.93;3.77;;;;;;;1.62;77.88;98839.22;5053327;28;20280;-66
2021/11/20 06:20:46;;;;;;;4.30;3.33;;;;;;;1.67;78.11;98863.19;5053369;28;20041;-64
2021/11/20 06:23:12;;;;;;;3.95;2.80;;;;;;;1.67;77.73;98864.00;5052993;28;20381;-65
2021/11/20 06:25:37;;;;;;;5.03;2.73;;;;;;;1.66;77.85;98866.78;5052562;28;20494;-66
2021/11/20 06:28:03;;;;;;;3.03;2.57;;;;;;;1.64;78.10;98868.75;5053321;28;20067;-66
2021/11/20 06:30:30;;;;;;;4.63;3.30;;;;;;;1.71;78.37;98878.47;5053288;28;20087;-66
2021/11/20 06:32:55;;;;;;;4.23;2.70;;;;;;;1.73;78.19;98883.56;5052331;28;20041;-66
2021/11/20 06:35:25;;;;;;;4.70;3.67;;;;;;;1.75;78.43;98873.78;5052725;28;20376;-70
2021/11/20 06:37:51;;;;;;;3.17;2.80;;;;;;;1.78;79.05;98883.97;5052452;28;20036;-65
2021/11/20 06:40:24;;;;;;;3.87;3.10;;;;;;;1.75;79.15;98865.91;5052690;28;20275;-67
2021/11/20 06:42:50;;;;;;;5.27;3.43;;;;;;;1.80;79.21;98876.75;5053136;28;20072;-68
2021/11/20 06:45:20;;;;;;;15.40;3.70;;;;;;;1.79;79.76;98872.47;5051767;28;20269;-67
2021/11/20 06:47:47;;;;;;;5.43;3.63;;;;;;;1.77;79.14;98866.56;5052885;28;20268;-71
2021/11/20 06:50:14;;;;;;;3.43;3.10;;;;;;;1.54;78.83;98848.69;5052910;28;20347;-70
2021/11/20 06:52:40;;;;;;;8.00;3.10;;;;;;;1.74;78.25;98869.50;5052476;28;20275;-71
2021/11/20 06:55:07;;;;;;;4.93;2.33;;;;;;;1.77;77.74;98872.63;5051758;28;20291;-67
2021/11/20 07:00:27;;;;;;;4.90;2.23;;;;;;;1.84;77.40;98892.03;5053117;28;20630;-67
2021/11/20 07:03:11;;;;;;;3.53;2.22;;;;;;;1.76;76.88;98875.41;5052657;28;20311;-66
2021/11/20 07:05:47;;;;;;;5.00;2.13;;;;;;;1.81;76.61;98894.16;5052899;28;20044;-68
2021/11/20 07:08:14;;;;;;;2.30;1.83;;;;;;;1.86;75.84;98905.84;5053143;28;20275;-69
2021/11/20 07:10:42;;;;;;;2.47;1.67;;;;;;;1.79;76.12;98909.22;5052515;28;20267;-66
2021/11/20 07:13:08;;;;;;;2.20;2.00;;;;;;;1.77;75.90;98905.94;5052710;28;20277;-67
2021/11/20 07:15:34;;;;;;;4.30;2.10;;;;;;;1.74;76.14;98899.19;5052504;28;20079;-67
2021/11/20 07:18:00;;;;;;;2.90;1.83;;;;;;;1.74;76.43;98906.25;5052427;28;20267;-67
2021/11/20 07:20:28;;;;;;;6.20;1.97;;;;;;;1.80;76.17;98906.44;5051591;28;20041;-69
2021/11/20 07:22:55;;;;;;;3.13;2.90;;;;;;;1.85;75.91;98912.06;5052734;28;20089;-69
2021/11/20 07:25:22;;;;;;;3.53;2.63;;;;;;;1.83;76.05;98910.56;5052743;28;20041;-66
2021/11/20 07:27:48;;;;;;;2.50;1.80;;;;;;;1.89;75.51;98915.19;5035699;28;20326;-69
2021/11/20 07:30:16;;;;;;;4.13;2.23;;;;;;;1.90;75.51;98905.53;5055163;28;20267;-70
2021/11/20 07:32:42;;;;;;;2.15;1.95;;;;;;;1.95;75.86;98916.38;5056525;28;20045;-70
2021/11/20 07:35:09;;;;;;;3.43;1.80;;;;;;;1.96;76.11;98915.41;5055250;28;20040;-71
2021/11/20 07:37:35;;;;;;;3.07;2.00;;;;;;;1.92;76.08;98904.41;5055834;28;20264;-67
2021/11/20 07:40:03;;;;;;;3.73;2.03;;;;;;;1.95;75.29;98904.09;5054301;28;20267;-73
2021/11/20 07:42:29;;;;;;;4.80;2.30;;;;;;;1.94;75.16;98912.94;5055420;28;20291;-72
2021/11/20 07:44:58;;;;;;;4.30;2.13;;;;;;;1.89;75.51;98894.22;5052451;28;20279;-71
2021/11/20 07:47:25;;;;;;;2.67;2.10;;;;;;;2.05;74.55;98925.84;5053016;28;20298;-66
2021/11/20 07:49:50;;;;;;;2.77;2.20;;;;;;;1.98;75.16;98916.91;5053018;28;20263;-68
2021/11/20 07:52:16;;;;;;;6.00;2.50;;;;;;;2.00;75.53;98922.81;5050094;28;20592;-74
2021/11/20 07:54:42;;;;;;;17.27;4.77;;;;;;;2.06;75.03;98939.78;5051699;28;20044;-74
2021/11/20 07:57:07;;;;;;;1.77;1.60;;;;;;;2.01;75.75;98948.09;5051647;28;20119;-68
2021/11/20 07:59:34;;;;;;;3.37;1.93;;;;;;;1.99;76.39;98944.81;5051561;28;20041;-67
2021/11/20 08:02:02;;;;;;;5.13;1.80;;;;;;;1.86;75.95;98926.00;5051276;28;20197;-69
2021/11/20 08:04:28;;;;;;;3.67;2.00;;;;;;;1.90;76.66;98932.59;5051951;28;20311;-67
2021/11/20 08:06:53;;;;;;;3.03;1.83;;;;;;;2.04;76.12;98950.44;5051750;28;20072;-64
2021/11/20 08:09:19;;;;;;;2.03;1.83;;;;;;;1.95;76.51;98926.88;5051965;28;20541;-72
2021/11/20 08:11:44;;;;;;;7.33;4.17;;;;;;;2.10;76.71;98952.47;5051729;28;20041;-68
2021/11/20 08:14:10;;;;;;;2.43;1.87;;;;;;;1.94;76.70;98943.63;5050343;28;20488;-65
2021/11/20 08:16:38;;;;;;;1.70;1.60;;;;;;;1.85;77.29;98955.88;5051889;28;20033;-69
2021/11/20 08:19:29;;;;;;;3.47;2.50;;;;;;;1.72;77.28;98950.16;5052156;28;20279;-64
2021/11/20 08:21:55;;;;;;;4.37;1.80;;;;;;;1.81;77.24;98944.84;5049858;28;20271;-73
2021/11/20 08:24:21;;;;;;;3.30;1.67;;;;;;;1.85;77.57;98942.75;5051892;28;20059;-66
2021/11/20 08:26:47;;;;;;;9.83;2.33;;;;;;;2.07;77.35;98955.41;5052314;28;20178;-66
2021/11/20 08:29:16;;;;;;;10.80;3.33;;;;;;;2.15;77.52;98962.50;5051806;28;20354;-72
2021/11/20 08:31:44;;;;;;;;;;;;;;;2.23;76.39;98965.19;5052480;28;20488;-66
2021/11/20 08:34:14;;;;;;;1.98;1.77;;;;;;;2.13;76.36;98964.47;5051709;28;19974;-69
2021/11/20 08:36:41;;;;;;;3.80;2.10;;;;;;;2.02;76.60;98936.63;5051791;28;20037;-67
2021/11/20 08:39:09;;;;;;;7.73;2.40;;;;;;;2.12;76.75;98953.13;5052411;28;20639;-64
2021/11/20 08:41:35;;;;;;;2.27;1.53;;;;;;;2.09;76.61;98937.69;5051373;28;20626;-69
2021/11/20 08:44:01;;;;;;;3.67;2.37;;;;;;;2.00;76.64;98922.00;5050879;28;20343;-69
2021/11/20 08:46:27;;;;;;;3.23;2.07;;;;;;;2.13;75.84;98957.41;5051278;28;20662;-66
2021/11/20 08:48:53;;;;;;;4.00;2.00;;;;;;;2.12;76.56;98961.00;5050715;28;20045;-66
2021/11/20 08:51:21;;;;;;;4.40;1.87;;;;;;;2.00;76.00;98930.69;5051098;28;20295;-65
2021/11/20 08:53:49;;;;;;;3.95;1.52;;;;;;;1.99;75.95;98942.19;5051385;28;20041;-64
2021/11/20 08:56:14;;;;;;;2.10;1.90;;;;;;;2.00;75.93;98943.81;5050858;28;20045;-67
2021/11/20 08:58:40;;;;;;;3.17;1.70;;;;;;;1.95;75.95;98935.59;5051149;28;20271;-68
2021/11/20 09:01:29;;;;;;;1.60;1.40;;;;;;;1.98;76.35;98935.28;5051566;28;20527;-66
2021/11/20 09:04:05;;;;;;;4.17;1.40;;;;;;;1.98;76.57;98934.47;5050786;28;20533;-65
2021/11/20 09:06:52;;;;;;;3.03;1.37;;;;;;;2.02;76.68;98941.88;5051491;28;20283;-63
2021/11/20 09:09:43;;;;;;;2.10;1.90;;;;;;;1.96;77.31;98941.66;5051854;28;20627;-63
2021/11/20 09:12:47;;;;;;;1.50;1.40;;;;;;;1.97;77.94;98959.06;5051551;28;20338;-61
2021/11/20 09:15:51;;;;;;;2.27;1.40;;;;;;;1.84;78.27;98943.72;5014868;28;20276;-63
2021/11/20 09:18:33;;;;;;;6.50;2.33;;;;;;;1.80;78.59;98953.69;5029537;28;20284;-63
2021/11/20 09:21:18;;;;;;;1.80;1.70;;;;;;;1.74;78.58;98956.09;5029249;28;20284;-66
2021/11/20 09:23:46;;;;;;;2.27;1.77;;;;;;;1.67;78.67;98934.03;5043446;28;20729;-66
2021/11/20 09:26:23;;;;;;;2.97;2.23;;;;;;;1.82;78.39;98961.41;5050856;28;20337;-66
2021/11/20 09:29:14;;;;;;;3.43;1.87;;;;;;;1.91;77.30;98960.50;5034467;28;20267;-69
2021/11/20 09:35:51;;;;;;;2.40;1.67;;;;;;;1.93;77.79;98948.03;5039559;28;20279;-69
2021/11/20 09:38:20;;;;;;;2.93;2.30;;;;;;;1.82;78.09;98936.00;4999180;28;20312;-66
2021/11/20 09:40:57;;;;;;;2.42;1.77;;;;;;;1.93;77.64;98936.72;5043065;28;20362;-73
2021/11/20 09:43:33;;;;;;;2.73;2.50;;;;;;;1.86;77.62;98934.72;5054755;28;20036;-76
2021/11/20 09:46:04;;;;;;;3.10;2.00;;;;;;;1.94;77.33;98931.31;5054065;28;20273;-69
2021/11/20 09:48:41;;;;;;;3.53;2.40;;;;;;;1.97;77.07;98938.88;5049643;28;20273;-72
2021/11/20 09:51:15;;;;;;;2.60;2.40;;;;;;;2.03;75.78;98935.69;5052941;28;20322;-67
2021/11/20 09:53:41;;;;;;;2.50;1.90;;;;;;;2.11;75.63;98951.47;5055120;28;20321;-65
2021/11/20 09:56:21;;;;;;;6.17;3.50;;;;;;;2.03;75.04;98938.31;5054551;28;20267;-65
2021/11/20 09:58:54;;;;;;;3.07;2.33;;;;;;;2.13;76.15;98952.16;5052173;28;20116;-63
2021/11/20 10:01:32;;;;;;;3.00;2.20;;;;;;;2.11;75.26;98950.66;5054386;28;20746;-66
2021/11/20 10:04:01;;;;;;;1.80;1.70;;;;;;;2.21;73.90;98972.41;5054439;28;20787;-65
2021/11/20 10:06:29;;;;;;;1.65;1.55;;;;;;;2.17;73.63;98950.88;5054393;28;20280;-64
2021/11/20 10:09:19;;;;;;;3.58;1.90;;;;;;;2.19;74.62;98945.47;5055494;28;20045;-66
2021/11/20 10:12:09;;;;;;;3.47;1.60;;;;;;;2.18;72.68;98957.75;5053622;28;20118;-70
2021/11/20 10:14:45;;;;;;;2.70;1.60;;;;;;;2.20;73.29;98944.47;5054568;28;20278;-67
2021/11/20 10:17:35;;;;;;;3.60;2.37;;;;;;;2.23;73.34;98943.34;5054850;28;20271;-67
2021/11/20 10:20:16;;;;;;;3.13;2.10;;;;;;;2.31;73.23;98951.28;5054824;28;20271;-65
2021/11/20 10:22:58;;;;;;;2.10;1.90;;;;;;;2.36;73.58;98944.59;5053567;28;20295;-68
2021/11/20 10:25:23;;;;;;;3.70;1.73;;;;;;;2.38;73.73;98941.81;5054124;28;20267;-65
2021/11/20 10:27:58;;;;;;;3.03;1.10;;;;;;;2.41;72.90;98952.00;5054123;28;20082;-61
2021/11/20 10:30:32;;;;;;;4.43;1.77;;;;;;;2.36;73.22;98938.53;5049961;28;20519;-67
2021/11/20 10:33:01;;;;;;;1.40;1.30;;;;;;;2.45;74.17;98958.59;5049300;28;20615;-66
2021/11/20 10:35:35;;;;;;;1.77;1.30;;;;;;;2.40;73.74;98948.56;5053702;28;20268;-67
2021/11/20 10:38:06;;;;;;;2.23;1.50;;;;;;;2.44;74.92;98935.94;5054089;28;20048;-65
2021/11/20 10:40:34;;;;;;;4.33;1.60;;;;;;;2.55;74.15;98933.03;5054221;28;20260;-68
2021/11/20 10:43:28;;;;;;;2.78;1.85;;;;;;;2.66;74.50;98939.84;5058784;28;20818;-64
2021/11/20 10:46:18;;;;;;;2.47;1.90;;;;;;;2.43;74.96;98923.78;5053770;28;20132;-66
2021/11/20 10:49:31;;;;;;;2.33;2.13;;;;;;;2.35;75.80;98936.88;5056416;28;20642;-68
2021/11/20 10:52:08;;;;;;;3.50;1.73;;;;;;;2.27;76.23;98939.44;5037426;28;20366;-63
2021/11/20 10:54:45;;;;;;;3.30;2.10;;;;;;;2.28;76.56;98930.56;5053201;28;20663;-67
2021/11/20 10:57:40;;;;;;;2.27;1.80;;;;;;;2.42;76.59;98945.78;5053092;28;20272;-67
2021/11/20 11:00:33;;;;;;;2.13;1.80;;;;;;;2.49;76.12;98925.78;5052887;28;20359;-66
2021/11/20 11:03:20;;;;;;;5.03;1.87;;;;;;;2.62;75.22;98923.56;5049952;28;20745;-72
2021/11/20 11:06:17;;;;;;;1.93;1.70;;;;;;;2.61;75.06;98911.41;5050165;28;20309;-68
2021/11/20 11:08:48;;;;;;;2.77;2.00;;;;;;;2.69;74.66;98900.94;5052082;28;20260;-68
2021/11/20 11:11:43;;;;;;;3.17;2.00;;;;;;;2.78;74.00;98917.53;5052624;28;20271;-70
2021/11/20 11:14:50;;;;;;;2.90;1.80;;;;;;;2.71;73.61;98917.38;5044470;28;20418;-66
2021/11/20 11:17:53;;;;;;;4.37;2.00;;;;;;;2.51;74.08;98888.84;5042449;28;20306;-73
2021/11/20 11:20:18;;;;;;;3.47;2.13;;;;;;;2.71;74.28;98927.06;5050737;28;20362;-67
2021/11/20 11:23:13;;;;;;;4.70;2.00;;;;;;;2.67;74.88;98916.03;5052833;28;20395;-71
2021/11/20 11:25:50;;;;;;;2.50;1.90;;;;;;;2.64;74.79;98913.72;5052722;28;20436;-70
2021/11/20 11:28:31;;;;;;;5.17;2.17;;;;;;;2.62;75.41;98913.06;5052935;28;20299;-67
2021/11/20 11:31:11;;;;;;;2.70;2.00;;;;;;;2.59;75.52;98913.34;5051798;28;20272;-62
2021/11/20 11:33:42;;;;;;;2.23;1.77;;;;;;;2.45;75.03;98906.06;5052740;28;20272;-63
2021/11/20 11:36:22;;;;;;;2.37;1.90;;;;;;;2.37;75.91;98903.41;5052365;28;20256;-64
2021/11/20 11:39:14;;;;;;;5.90;2.30;;;;;;;2.42;75.78;98911.63;5052807;28;20268;-62
2021/11/20 11:42:16;;;;;;;7.60;1.70;;;;;;;2.35;75.59;98907.97;5052381;28;20274;-64
2021/11/20 11:45:07;;;;;;;3.80;2.17;;;;;;;2.39;75.53;98909.31;5048030;28;20359;-63
2021/11/20 11:48:07;;;;;;;1.80;1.53;;;;;;;2.38;75.22;98921.63;5052568;28;20283;-62
